Aviation Digital Data Service (ADDS)

Output produced by METARs form (1605 UTC 22 May 2015)
found at http://aviationweather.gov/adds/metars/
 
KAEX 221130Z 2212/2312 06005KT P6SM OVC009 
     FM221600 07006KT P6SM FEW015 BKN025 
     FM221900 07006KT P6SM FEW025 BKN040 
     FM230000 08003KT P6SM BKN250